Quecreek, Pennsylvania
Current Conditions -  °F | °C
As of 2:54 AM on Thursday 23 Oct 2014 (Local Time) from KJST Reporting Station
Overcast Overcast  
Wind Chill: 34°   Ceiling: 600
Heat Index: 41°   Visibility: 10mi
Dew Point: 38°   Wind: 13mph
Humidity: 89%   Direction: 320°NW
Pressure: 30.04"   Gusts: NA
Location:  40.09°N, 79.08°W
Report Text: KJST 230654Z AUTO 32011KT 10SM OVC006 05/03 A3004 RMK AO2 SLP185 T00500033
Loading
Personal Weather Stations






























Interactive Weather Map
Tropical Storm Tracking
New forecast layout! Learn more

10-Day Weather Forecast

Advertisements
Track Severe Weather on mobile